^^
Grace C. Lehan Memorial Weather Station Historical Data
Daily Summary for January 24, 2021 Units:  English    Metric   Both
Daily Weekly Monthly Yearly
  High: Low: Average:
Temperature: 85.2 °F 59.7 °F 72.7 °F
Dew Point: 65.6 °F 57.7 °F 61.4 °F
Humidity: 95% 40.7% 71%
Wind Speed: 2.4mph 0mph 0.3mph
Wind Gust: 7mph - -
Wind- - SE
Pressure: 30.09 in 29.98 in -
Precipitation: 0.00 in    
 
 
Tabular Data for January 24, 2021
Time Temperature Dew Point Pressure Wind Wind Speed Wind Gust Humidity Rainfall Rate (Hourly) solar
00:09 64.6 °F 60.7 °F 30.07 in Calm     87% 0.00 in 0 W/m2
00:14 64.5 °F 60.6 °F 30.07 in Calm     87% 0.00 in 0 W/m2
00:19 64.4 °F 60.7 °F 30.07 in Calm     87.8% 0.00 in 0 W/m2
00:24 64.3 °F 60.7 °F 30.07 in Calm     88% 0.00 in 0 W/m2
00:29 64.2 °F 60.6 °F 30.07 in Calm     88% 0.00 in 0 W/m2
00:34 64.2 °F 60.5 °F 30.07 in Calm     88% 0.00 in 0 W/m2
00:39 64.1 °F 60.5 °F 30.07 in Calm     88% 0.00 in 0 W/m2
00:44 64 °F 60.4 °F 30.07 in Calm     88% 0.00 in 0 W/m2
00:49 63.9 °F 60.3 °F 30.07 in Calm     88% 0.00 in 0 W/m2
00:54 63.9 °F 60.3 °F 30.07 in Calm     88.1% 0.00 in 0 W/m2
00:59 63.8 °F 60.5 °F 30.07 in Calm     89% 0.00 in 0 W/m2
01:04 63.7 °F 60.4 °F 30.07 in Calm     89% 0.00 in 0 W/m2
01:09 63.6 °F 60.3 °F 30.06 in Calm     89% 0.00 in 0 W/m2
01:14 63.5 °F 60.2 °F 30.06 in Calm     89% 0.00 in 0 W/m2
01:19 63.4 °F 60.4 °F 30.06 in Calm     89.7% 0.00 in 0 W/m2
01:24 63.4 °F 60.4 °F 30.06 in Calm     90% 0.00 in 0 W/m2
01:29 63.4 °F 60.4 °F 30.06 in Calm     90% 0.00 in 0 W/m2
01:34 63.4 °F 60.4 °F 30.06 in Calm     90% 0.00 in 0 W/m2
01:39 63.3 °F 60.3 °F 30.06 in Calm     90% 0.00 in 0 W/m2
01:44 63.2 °F 60.2 °F 30.06 in Calm     90% 0.00 in 0 W/m2
01:49 63.1 °F 60.1 °F 30.06 in Calm     90% 0.00 in 0 W/m2
01:54 63 °F 60.1 °F 30.06 in Calm     90% 0.00 in 0 W/m2
01:59 62.9 °F 59.9 °F 30.06 in Calm     90% 0.00 in 0 W/m2
02:04 62.8 °F 59.9 °F 30.06 in Calm     90% 0.00 in 0 W/m2
02:09 62.7 °F 59.7 °F 30.06 in Calm     90% 0.00 in 0 W/m2
02:14 62.6 °F 59.9 °F 30.06 in Calm     90.7% 0.00 in 0 W/m2
02:19 62.5 °F 59.5 °F 30.06 in Calm     90% 0.00 in 0 W/m2
02:24 62.4 °F 59.5 °F 30.06 in Calm     90.2% 0.00 in 0 W/m2
02:29 62.3 °F 59.6 °F 30.06 in Calm     91% 0.00 in 0 W/m2
02:34 62.2 °F 59.5 °F 30.06 in Calm     91% 0.00 in 0 W/m2
02:39 62.1 °F 59.4 °F 30.06 in Calm     91% 0.00 in 0 W/m2
02:44 62 °F 59.3 °F 30.06 in Calm     91% 0.00 in 0 W/m2
02:49 61.9 °F 59.3 °F 30.06 in Calm     91% 0.00 in 0 W/m2
02:54 61.9 °F 59.2 °F 30.06 in Calm     91% 0.00 in 0 W/m2
02:59 61.8 °F 59.1 °F 30.06 in Calm     91% 0.00 in 0 W/m2
03:04 61.7 °F 59.1 °F 30.06 in Calm     91% 0.00 in 0 W/m2
03:09 61.6 °F 59 °F 30.06 in Calm     91% 0.00 in 0 W/m2
03:14 61.6 °F 58.9 °F 30.06 in Calm     91% 0.00 in 0 W/m2
03:19 61.5 °F 58.8 °F 30.06 in Calm     91% 0.00 in 0 W/m2
03:24 61.4 °F 58.8 °F 30.06 in Calm     91.2% 0.00 in 0 W/m2
03:29 61.4 °F 58.7 °F 30.06 in Calm     91% 0.00 in 0 W/m2
03:34 61.3 °F 58.7 °F 30.06 in Calm     91% 0.00 in 0 W/m2
03:39 61.2 °F 58.6 °F 30.07 in Calm     91.3% 0.00 in 0 W/m2
03:44 61.1 °F 58.8 °F 30.07 in Calm     92% 0.00 in 0 W/m2
03:49 61 °F 58.7 °F 30.07 in Calm     92% 0.00 in 0 W/m2
03:54 61 °F 58.6 °F 30.07 in Calm     92% 0.00 in 0 W/m2
03:59 60.9 °F 58.6 °F 30.07 in Calm     92% 0.00 in 0 W/m2
04:00 60.9 °F 58.6 °F 30.07 in Calm     92% 0.00 in 0 W/m2
04:09 60.7 °F 58.4 °F 30.07 in Calm     92% 0.00 in 0 W/m2
04:14 60.7 °F 58.4 °F 30.07 in Calm     92% 0.00 in 0 W/m2
04:19 60.7 °F 58.4 °F 30.07 in Calm     92% 0.00 in 0 W/m2
04:24 60.7 °F 58.3 °F 30.07 in Calm     92% 0.00 in 0 W/m2
04:29 60.6 °F 58.3 °F 30.07 in Calm     92% 0.00 in 0 W/m2
04:34 60.5 °F 58.2 °F 30.07 in Calm     92% 0.00 in 0 W/m2
04:39 60.4 °F 58.1 °F 30.07 in Calm     92% 0.00 in 0 W/m2
04:44 60.3 °F 58.3 °F 30.07 in Calm     92.8% 0.00 in 0 W/m2
04:49 60.3 °F 58.1 °F 30.07 in Calm     92.5% 0.00 in 0 W/m2
04:54 60.3 °F 58.3 °F 30.07 in Calm     93% 0.00 in 0 W/m2
04:59 60.2 °F 58.2 °F 30.07 in Calm     93% 0.00 in 0 W/m2
05:04 60.2 °F 58.1 °F 30.07 in Calm     93% 0.00 in 0 W/m2
05:09 60.1 °F 58.1 °F 30.07 in Calm     93% 0.00 in 0 W/m2
05:14 60.1 °F 58.1 °F 30.07 in Calm     93% 0.00 in 0 W/m2
05:19 60.1 °F 58.1 °F 30.07 in Calm     93% 0.00 in 0 W/m2
05:24 60.1 °F 58.1 °F 30.07 in Calm     93% 0.00 in 0 W/m2
05:29 60 °F 58 °F 30.07 in Calm     93% 0.00 in 0 W/m2
05:34 60 °F 58 °F 30.07 in Calm     93% 0.00 in 0 W/m2
05:39 59.9 °F 57.9 °F 30.07 in Calm     93% 0.00 in 0 W/m2
05:44 59.9 °F 57.9 °F 30.07 in Calm     93% 0.00 in 0 W/m2
05:49 59.8 °F 57.8 °F 30.07 in Calm     93% 0.00 in 5 W/m2
05:54 59.8 °F 57.8 °F 30.07 in Calm     93% 0.00 in 7 W/m2
05:59 59.7 °F 57.7 °F 30.07 in Calm     93% 0.00 in 9 W/m2
06:04 59.7 °F 57.7 °F 30.08 in Calm     93% 0.00 in 12 W/m2
06:09 59.7 °F 57.7 °F 30.08 in Calm     93% 0.00 in 14 W/m2
06:14 59.7 °F 57.8 °F 30.08 in Calm     93.4% 0.00 in 16 W/m2
06:19 59.9 °F 58.2 °F 30.08 in Calm     94% 0.00 in 18 W/m2
06:24 60.1 °F 58.4 °F 30.08 in Calm     94% 0.00 in 23 W/m2
06:29 60.2 °F 58.5 °F 30.08 in Calm     94% 0.00 in 28 W/m2
06:34 60.4 °F 58.7 °F 30.08 in Calm     94% 0.00 in 33 W/m2
06:39 60.7 °F 59.1 °F 30.08 in Calm     94.5% 0.00 in 42 W/m2
06:44 61.1 °F 59.6 °F 30.08 in Calm     95% 0.00 in 51 W/m2
06:49 61.4 °F 59.9 °F 30.08 in Calm     95% 0.00 in 54 W/m2
06:54 61.8 °F 60.4 °F 30.09 in Calm     95% 0.00 in 58 W/m2
06:59 62.2 °F 60.8 °F 30.09 in Calm     95% 0.00 in 62 W/m2
07:04 62.8 °F 61.3 °F 30.09 in Calm     95% 0.00 in 86 W/m2
07:09 63.5 °F 61.7 °F 30.08 in Calm     94% 0.00 in 83 W/m2
07:14 64.2 °F 62.1 °F 30.08 in Calm     92.7% 0.00 in 79 W/m2
07:19 64.9 °F 62.3 °F 30.09 in Calm     91.3% 0.00 in 139 W/m2
07:24 65.5 °F 62.1 °F 30.09 in Calm     88.7% 0.00 in 218 W/m2
07:29 66.1 °F 62.1 °F 30.09 in Calm     86.9% 0.00 in 243 W/m2
07:34 66.7 °F 62.1 °F 30.08 in Calm     85.1% 0.00 in 262 W/m2
07:39 67.2 °F 61.9 °F 30.08 in Calm   1 mph 83% 0.00 in 281 W/m2
07:44 67.6 °F 61.4 °F 30.09 in East 0.2 mph 2 mph 80.6% 0.00 in 302 W/m2
07:49 67.7 °F 60.9 °F 30.09 in Calm   2 mph 78.7% 0.00 in 327 W/m2
07:54 68.1 °F 61.9 °F 30.09 in Calm   2 mph 80.4% 0.00 in 350 W/m2
07:59 68.6 °F 61.5 °F 30.09 in Calm   2 mph 78.1% 0.00 in 362 W/m2
08:09 69.4 °F 62.9 °F 30.09 in Calm     79.8% 0.00 in 397 W/m2
08:14 69.9 °F 62.7 °F 30.09 in Calm   1 mph 77.7% 0.00 in 415 W/m2
08:19 70.6 °F 62.8 °F 30.09 in East 0.1 mph 2 mph 76.5% 0.00 in 432 W/m2
08:24 71.1 °F 62.7 °F 30.09 in Calm   2 mph 74.9% 0.00 in 446 W/m2
08:29 71.4 °F 62.5 °F 30.09 in Calm   2 mph 73.6% 0.00 in 462 W/m2
08:34 71.6 °F 62.7 °F 30.09 in ENE 0.6 mph 4 mph 73.4% 0.00 in 473 W/m2
08:39 71.8 °F 62.2 °F 30.09 in ENE 0.5 mph 4 mph 71.7% 0.00 in 489 W/m2
08:44 72 °F 62.2 °F 30.09 in Calm   4 mph 71.2% 0.00 in 504 W/m2
08:49 72.2 °F 62.9 °F 30.09 in ENE 0.3 mph 4 mph 72.5% 0.00 in 522 W/m2
08:54 72.6 °F 62.6 °F 30.09 in ENE 0.2 mph 4 mph 71% 0.00 in 538 W/m2
08:59 73.2 °F 63.9 °F 30.09 in ENE 0.2 mph 4 mph 72.5% 0.00 in 559 W/m2
09:04 73.7 °F 62.5 °F 30.09 in ENE 0.1 mph 4 mph 68.2% 0.00 in 575 W/m2
09:09 73.5 °F 62.2 °F 30.09 in ENE 0.1 mph 3 mph 67.7% 0.00 in 591 W/m2
09:14 73.5 °F 62.3 °F 30.09 in ENE 0.2 mph 4 mph 68% 0.00 in 605 W/m2
09:19 73.9 °F 63.4 °F 30.09 in Calm   4 mph 69.6% 0.00 in 624 W/m2
09:24 74.7 °F 63.4 °F 30.09 in Calm   4 mph 68% 0.00 in 640 W/m2
09:29 75.4 °F 63.9 °F 30.09 in Calm   4 mph 67.6% 0.00 in 657 W/m2
09:34 76 °F 63.6 °F 30.09 in ENE 0.5 mph 4 mph 65.4% 0.00 in 671 W/m2
09:39 75.9 °F 61.9 °F 30.09 in ENE 0.6 mph 5 mph 61.9% 0.00 in 684 W/m2
09:44 75.4 °F 62.7 °F 30.09 in ENE 0.6 mph 5 mph 64.6% 0.00 in 696 W/m2
09:49 75.8 °F 63.8 °F 30.08 in NE 0.3 mph 5 mph 66.4% 0.00 in 710 W/m2
09:54 76.4 °F 63.2 °F 30.08 in ENE 0.8 mph 5 mph 63.7% 0.00 in 724 W/m2
09:59 76.9 °F 64 °F 30.08 in Calm   5 mph 64.6% 0.00 in 738 W/m2
10:04 77.5 °F 64.8 °F 30.08 in ENE 0.4 mph 5 mph 65.1% 0.00 in 751 W/m2
10:09 78.1 °F 64.1 °F 30.08 in East 1.1 mph 5 mph 62.2% 0.00 in 761 W/m2
10:14 78.5 °F 64.2 °F 30.08 in NW 0.7 mph 7 mph 61.7% 0.00 in 773 W/m2
10:19 78.7 °F 64.7 °F 30.08 in NNW 0.6 mph 7 mph 62.1% 0.00 in 784 W/m2
10:24 79 °F 64.6 °F 30.08 in North 0.1 mph 7 mph 61.4% 0.00 in 798 W/m2
10:29 79 °F 64 °F 30.08 in East 0.5 mph 7 mph 60.2% 0.00 in 809 W/m2
10:34 79.1 °F 65.3 °F 30.08 in ENE 0.5 mph 7 mph 62.7% 0.00 in 817 W/m2
10:39 79.5 °F 64.6 °F 30.08 in North 0.3 mph 3 mph 60.3% 0.00 in 826 W/m2
10:44 80 °F 65.4 °F 30.08 in North 0.2 mph 5 mph 61.1% 0.00 in 837 W/m2
10:49 80.4 °F 65 °F 30.08 in NNE 0.1 mph 5 mph 59.5% 0.00 in 844 W/m2
10:54 80.7 °F 64.9 °F 30.08 in NNE 0.1 mph 5 mph 58.6% 0.00 in 853 W/m2
10:59 81 °F 65.6 °F 30.08 in NNE 0.6 mph 5 mph 59.5% 0.00 in 858 W/m2
11:04 81.3 °F 64.8 °F 30.08 in NNE 0.5 mph 5 mph 57.5% 0.00 in 867 W/m2
11:09 81.1 °F 63.4 °F 30.08 in ENE 1.1 mph 6 mph 55% 0.00 in 875 W/m2
11:14 81.1 °F 63.7 °F 30.08 in ENE 0.2 mph 6 mph 55.6% 0.00 in 879 W/m2
11:19 81.4 °F 64 °F 30.08 in ENE 0.7 mph 6 mph 55.6% 0.00 in 886 W/m2
11:24 81.8 °F 62.6 °F 30.08 in ENE 0.6 mph 6 mph 52.3% 0.00 in 891 W/m2
11:29 81.7 °F 61.5 °F 30.08 in ENE 0.5 mph 6 mph 50.5% 0.00 in 893 W/m2
11:34 81.6 °F 61.9 °F 30.08 in ENE 0.3 mph 6 mph 51.4% 0.00 in 900 W/m2
11:39 81.4 °F 62 °F 30.08 in ENE 0.2 mph 3 mph 51.8% 0.00 in 905 W/m2
11:44 81.8 °F 63.6 °F 30.08 in ENE 0.3 mph 3 mph 54.1% 0.00 in 911 W/m2
11:49 82.1 °F 62 °F 30.08 in ENE 0.8 mph 5 mph 50.6% 0.00 in 911 W/m2
11:54 82.4 °F 62.6 °F 30.08 in ENE 1.2 mph 5 mph 51.2% 0.00 in 918 W/m2
11:59 82.2 °F 61.4 °F 30.09 in ENE 0.7 mph 5 mph 49.4% 0.00 in 918 W/m2
12:00 81.9 °F 61.5 °F 30.08 in Calm   5 mph 50% 0.00 in 918 W/m2
12:09 82.1 °F 62 °F 30.08 in East 0.2 mph 2 mph 50.6% 0.00 in 932 W/m2
12:14 82.5 °F 62.9 °F 30.08 in East 0.2 mph 2 mph 51.7% 0.00 in 933 W/m2
12:19 83 °F 62.3 °F 30.08 in NNE 1.4 mph 5 mph 49.7% 0.00 in 940 W/m2
12:24 83.2 °F 61.6 °F 30.08 in ENE 2.3 mph 5 mph 48.2% 0.00 in 946 W/m2
12:29 83.3 °F 59.3 °F 30.08 in NE 0.4 mph 5 mph 44.4% 0.00 in 951 W/m2
12:34 82.9 °F 59.1 °F 30.08 in NE 0.2 mph 5 mph 44.6% 0.00 in 949 W/m2
12:39 83 °F 61.6 °F 30.07 in NE 0.6 mph 4 mph 48.5% 0.00 in 953 W/m2
12:44 83.3 °F 62 °F 30.08 in NE 2.4 mph 7 mph 48.7% 0.00 in 953 W/m2
12:49 83.5 °F 60.7 °F 30.08 in ENE 1.2 mph 7 mph 46.3% 0.00 in 951 W/m2
12:54 83.6 °F 62.1 °F 30.08 in NNE 1.6 mph 7 mph 48.4% 0.00 in 951 W/m2
12:59 83.7 °F 62.9 °F 30.07 in NNW 0.8 mph 7 mph 49.6% 0.00 in 947 W/m2
13:04 83.8 °F 61.5 °F 30.07 in NE 1.3 mph 7 mph 47.1% 0.00 in 947 W/m2
13:09 83.6 °F 60.3 °F 30.07 in ENE 0.3 mph 5 mph 45.4% 0.00 in 946 W/m2
13:14 83.3 °F 60 °F 30.07 in ENE 1.4 mph 6 mph 45.3% 0.00 in 949 W/m2
13:19 83.4 °F 60.6 °F 30.07 in NE 1.3 mph 6 mph 46.4% 0.00 in 951 W/m2
13:24 83.6 °F 60.3 °F 30.07 in NNW 0.8 mph 6 mph 45.5% 0.00 in 958 W/m2
13:29 83.8 °F 60.1 °F 30.07 in North 0.5 mph 6 mph 44.9% 0.00 in 963 W/m2
13:34 83.9 °F 58.9 °F 30.07 in North 1.1 mph 6 mph 42.8% 0.00 in 958 W/m2
13:39 83.9 °F 59.7 °F 30.06 in North 1.8 mph 6 mph 44% 0.00 in 954 W/m2
13:44 83.8 °F 59.9 °F 30.06 in North 1.2 mph 6 mph 44.5% 0.00 in 953 W/m2
13:49 83.6 °F 57.9 °F 30.06 in NE 0.4 mph 6 mph 41.6% 0.00 in 953 W/m2
13:54 83.6 °F 59.3 °F 30.06 in NE 1.1 mph 6 mph 43.9% 0.00 in 951 W/m2
13:59 83.8 °F 60.3 °F 30.05 in NE 0.7 mph 6 mph 45.1% 0.00 in 953 W/m2
14:04 84.3 °F 59.6 °F 30.06 in North 1.5 mph 6 mph 43.4% 0.00 in 951 W/m2
14:09 84.4 °F 60.2 °F 30.06 in NNE 1.7 mph 5 mph 44.2% 0.00 in 972 W/m2
14:14 84.3 °F 59.6 °F 30.05 in NE 1.1 mph 5 mph 43.3% 0.00 in 972 W/m2
14:19 84.1 °F 58.4 °F 30.05 in NE 0.1 mph 5 mph 41.8% 0.00 in 925 W/m2
14:24 83.9 °F 58.5 °F 30.05 in NE 0.8 mph 5 mph 42.2% 0.00 in 939 W/m2
14:29 84 °F 59 °F 30.05 in NE 1.3 mph 5 mph 42.9% 0.00 in 939 W/m2
14:34 84.2 °F 59.2 °F 30.05 in NE 0.3 mph 5 mph 42.9% 0.00 in 932 W/m2
14:39 84.3 °F 59.3 °F 30.05 in Calm   3 mph 42.8% 0.00 in 935 W/m2
14:44 84.6 °F 61 °F 30.04 in NE 0.8 mph 5 mph 45% 0.00 in 935 W/m2
14:49 85 °F 61.1 °F 30.04 in NE 0.3 mph 5 mph 44.6% 0.00 in 904 W/m2
14:54 85.2 °F 60.3 °F 30.04 in NE 0.7 mph 5 mph 43.2% 0.00 in 134 W/m2
14:59 84.7 °F 59 °F 30.04 in NE 0.1 mph 5 mph 41.8% 0.00 in 886 W/m2
15:04 84.3 °F 60.5 °F 30.04 in NNW 0.5 mph 5 mph 44.7% 0.00 in 879 W/m2
15:09 84.1 °F 59.4 °F 30.04 in WNW 0.3 mph 5 mph 43.3% 0.00 in 860 W/m2
15:14 84 °F 60.7 °F 30.04 in WNW 0.1 mph 5 mph 45.4% 0.00 in 867 W/m2
15:19 83.9 °F 61.3 °F 30.03 in WNW 0.9 mph 5 mph 46.7% 0.00 in 867 W/m2
15:24 84 °F 60.4 °F 30.03 in WNW 0.4 mph 5 mph 45% 0.00 in 831 W/m2
15:29 84.2 °F 57.8 °F 30.03 in WNW 1.7 mph 5 mph 40.7% 0.00 in 838 W/m2
15:34 84.2 °F 59.1 °F 30.03 in NW 0.9 mph 5 mph 42.8% 0.00 in 810 W/m2
15:39 84.4 °F 59.5 °F 30.02 in WNW 0.7 mph 4 mph 43.1% 0.00 in 789 W/m2
15:44 84.6 °F 61.2 °F 30.02 in WNW 1.3 mph 4 mph 45.3% 0.00 in 789 W/m2
15:49 84.8 °F 60.6 °F 30.02 in WNW 0.2 mph 4 mph 44.2% 0.00 in 779 W/m2
15:54 84.6 °F 59.9 °F 30.02 in Calm   4 mph 43.4% 0.00 in 88 W/m2
15:59 84.3 °F 59.9 °F 30.02 in Calm   4 mph 43.8% 0.00 in 100 W/m2
16:04 83.9 °F 61.3 °F 30.02 in Calm   4 mph 46.5% 0.00 in 735 W/m2
16:09 83.7 °F 60.9 °F 30.02 in Calm     46.3% 0.00 in 735 W/m2
16:14 83.5 °F 60 °F 30.02 in Calm     45.2% 0.00 in 698 W/m2
16:19 83.2 °F 59.7 °F 30.02 in Calm     45% 0.00 in 698 W/m2
16:24 83.1 °F 60.1 °F 30.02 in WNW 0.4 mph 5 mph 45.8% 0.00 in 98 W/m2
16:29 83.2 °F 61.4 °F 30.02 in WNW 0.9 mph 5 mph 48% 0.00 in 105 W/m2
16:34 83.3 °F 60.3 °F 30.02 in WNW 0.2 mph 5 mph 46% 0.00 in 105 W/m2
16:39 83.3 °F 59.6 °F 30.02 in WNW 0.1 mph 2 mph 44.8% 0.00 in 100 W/m2
16:44 83.2 °F 60.5 °F 30.02 in WNW 0.1 mph 2 mph 46.3% 0.00 in 91 W/m2
16:49 83.2 °F 60.4 °F 30.01 in WNW 0.9 mph 3 mph 46.2% 0.00 in 76 W/m2
16:54 83.3 °F 60.6 °F 30.01 in WNW 0.5 mph 3 mph 46.3% 0.00 in 70 W/m2
16:59 83.4 °F 61.8 °F 30.01 in WNW 0.6 mph 3 mph 48.1% 0.00 in 81 W/m2
17:04 83.6 °F 61.1 °F 30.01 in WNW 0.6 mph 3 mph 46.7% 0.00 in 102 W/m2
17:09 83.6 °F 62.3 °F 30.01 in WNW 1.1 mph 5 mph 48.7% 0.00 in 127 W/m2
17:14 83.6 °F 63.8 °F 30.00 in WSW 1.2 mph 5 mph 51.4% 0.00 in 128 W/m2
17:19 83.3 °F 64.4 °F 30.00 in SE 1 mph 5 mph 53% 0.00 in 90 W/m2
17:24 82.6 °F 63.9 °F 30.01 in ESE 0.2 mph 5 mph 53.3% 0.00 in 104 W/m2
17:29 82.2 °F 64.5 °F 30.01 in ESE 0.3 mph 5 mph 55.3% 0.00 in 102 W/m2
17:34 81.8 °F 64.4 °F 30.01 in ESE 0.4 mph 5 mph 55.5% 0.00 in 84 W/m2
17:39 81.5 °F 63.5 °F 30.01 in SE 0.6 mph 4 mph 54.4% 0.00 in 74 W/m2
17:44 81.1 °F 63.2 °F 30.01 in SSE 0.6 mph 5 mph 54.5% 0.00 in 81 W/m2
17:49 80.8 °F 62.7 °F 30.01 in SSW 0.7 mph 5 mph 54% 0.00 in 83 W/m2
17:52 80.7 °F 62.5 °F 30.01 in South 1.5 mph 6 mph 54% 0.00 in 76 W/m2
18:00 80.3 °F 63.2 °F 30.00 in South 1 mph 6 mph 56% 0.00 in 74 W/m2
18:30 79.1 °F 62.1 °F 30.01 in Calm   5 mph 56% 0.00 in 45 W/m2
19:00 78.1 °F 60.6 °F 30.00 in Calm   3 mph 55% 0.00 in 39 W/m2
19:30 76.9 °F 62.4 °F 30.01 in Calm   4 mph 61% 0.00 in 34 W/m2
20:04 75.8 °F 64.1 °F 30.00 in South 0.4 mph 2 mph 67% 0.00 in 0 W/m2
20:09 75.7 °F 64.3 °F 30.01 in South 0.3 mph 3 mph 67.8% 0.00 in 0 W/m2
20:14 75.4 °F 64.5 °F 30.00 in South 0.1 mph 3 mph 68.8% 0.00 in 0 W/m2
20:19 75.2 °F 64.7 °F 30.00 in South 0.1 mph 3 mph 69.6% 0.00 in 0 W/m2
20:24 75 °F 64.6 °F 30.00 in Calm   3 mph 70% 0.00 in 0 W/m2
20:29 74.8 °F 64.8 °F 30.00 in Calm   3 mph 70.9% 0.00 in 0 W/m2
20:34 74.7 °F 64.9 °F 30.00 in Calm   3 mph 71.7% 0.00 in 0 W/m2
20:39 74.5 °F 65 °F 30.00 in Calm     72.2% 0.00 in 0 W/m2
20:44 74.3 °F 65.1 °F 30.00 in Calm     73% 0.00 in 0 W/m2
20:49 74.2 °F 65 °F 30.00 in Calm   1 mph 73% 0.00 in 0 W/m2
20:54 74 °F 65 °F 30.00 in Calm   1 mph 73.4% 0.00 in 0 W/m2
20:59 73.9 °F 65.1 °F 30.00 in Calm   1 mph 74% 0.00 in 0 W/m2
21:04 73.7 °F 65 °F 30.00 in Calm   1 mph 74% 0.00 in 0 W/m2
21:09 73.6 °F 65.1 °F 30.00 in Calm     74.5% 0.00 in 0 W/m2
21:14 73.5 °F 65.1 °F 30.00 in Calm     75% 0.00 in 0 W/m2
21:19 73.4 °F 65 °F 30.01 in Calm     75% 0.00 in 0 W/m2
21:24 73.3 °F 64.9 °F 30.01 in Calm     75% 0.00 in 0 W/m2
21:29 73.1 °F 64.7 °F 30.01 in Calm     75% 0.00 in 0 W/m2
21:34 73 °F 64.6 °F 30.01 in Calm     75% 0.00 in 0 W/m2
21:39 72.9 °F 64.8 °F 30.01 in Calm     75.9% 0.00 in 0 W/m2
21:44 72.7 °F 64.7 °F 30.01 in Calm     76% 0.00 in 0 W/m2
21:49 72.6 °F 64.6 °F 30.01 in Calm     76% 0.00 in 0 W/m2
21:54 72.5 °F 64.4 °F 30.02 in Calm     75.8% 0.00 in 0 W/m2
21:59 72.4 °F 64 °F 30.02 in Calm     75% 0.00 in 0 W/m2
22:04 72.2 °F 63.9 °F 30.01 in Calm     75% 0.00 in 0 W/m2
22:09 72.1 °F 63.8 °F 30.01 in Calm     75% 0.00 in 0 W/m2
22:14 72 °F 63.7 °F 30.01 in Calm     75% 0.00 in 0 W/m2
22:19 72 °F 63.5 °F 30.01 in Calm     74.6% 0.00 in 0 W/m2
22:24 71.9 °F 63.2 °F 30.01 in Calm     74% 0.00 in 0 W/m2
22:29 71.9 °F 63.4 °F 30.00 in Calm     74.7% 0.00 in 0 W/m2
22:33 71.8 °F 63.5 °F 30.00 in Calm     75% 0.00 in 0 W/m2
22:39 71.7 °F 63.4 °F 30.00 in Calm     75% 0.00 in 0 W/m2
22:44 71.6 °F 63.3 °F 30.00 in Calm     75% 0.00 in 0 W/m2
22:49 71.5 °F 62.8 °F 30.00 in Calm     74.1% 0.00 in 0 W/m2
22:54 71.5 °F 63.1 °F 30.00 in Calm     74.8% 0.00 in 0 W/m2
22:59 71.5 °F 63.1 °F 30.00 in Calm     75% 0.00 in 0 W/m2
23:04 71.4 °F 63.1 °F 29.99 in Calm     75% 0.00 in 0 W/m2
23:09 71.3 °F 63 °F 29.99 in Calm   2 mph 75.1% 0.00 in 0 W/m2
23:14 71.2 °F 63.3 °F 29.99 in Calm   2 mph 76% 0.00 in 0 W/m2
23:19 71.2 °F 63.3 °F 29.99 in Calm   2 mph 76.1% 0.00 in 0 W/m2
23:24 71.1 °F 63.5 °F 29.99 in Calm   2 mph 77% 0.00 in 0 W/m2
23:29 71.1 °F 63.5 °F 29.99 in Calm   2 mph 77% 0.00 in 0 W/m2
23:34 71.1 °F 63.9 °F 29.99 in Calm   2 mph 78% 0.00 in 0 W/m2
23:39 71 °F 63.8 °F 29.99 in Calm     78% 0.00 in 0 W/m2
23:44 71 °F 63.8 °F 29.98 in Calm     78% 0.00 in 0 W/m2
23:49 70.9 °F 64 °F 29.98 in Calm     78.9% 0.00 in 0 W/m2
23:54 70.9 °F 64.1 °F 29.98 in Calm     79% 0.00 in 0 W/m2
23:59 70.8 °F 64 °F 29.98 in Calm     79% 0.00 in 0 W/m2
Hartford County Weather
Compliments of Weather Underground - 4 mb